createdAt,value
2018-07-16T00:00:13.458Z,6.10
2018-07-16T00:02:41.353Z,7.77
2018-07-16T00:05:09.251Z,6.27
2018-07-16T00:07:37.111Z,5.43
2018-07-16T00:10:05.070Z,5.17
2018-07-16T00:12:32.812Z,5.00
2018-07-16T00:15:00.582Z,5.20
2018-07-16T00:17:28.403Z,5.73
2018-07-16T00:19:56.227Z,4.53
2018-07-16T00:22:23.971Z,4.27
2018-07-16T00:24:51.784Z,4.70
2018-07-16T00:27:19.639Z,4.50
2018-07-16T00:29:47.399Z,5.00
2018-07-16T00:32:15.130Z,8.33
2018-07-16T00:34:42.956Z,4.20
2018-07-16T00:37:10.735Z,3.17
2018-07-16T00:39:38.550Z,3.90
2018-07-16T00:42:06.345Z,4.17
2018-07-16T00:44:34.143Z,6.03
2018-07-16T00:47:01.940Z,4.90
2018-07-16T00:49:29.747Z,4.60
2018-07-16T00:51:57.583Z,4.70
2018-07-16T00:54:25.383Z,6.77
2018-07-16T00:56:53.215Z,4.40
2018-07-16T00:59:21.121Z,4.97
2018-07-16T01:01:48.967Z,4.60
2018-07-16T01:04:16.720Z,4.60
2018-07-16T01:06:44.463Z,4.73
2018-07-16T01:09:12.311Z,6.03
2018-07-16T01:11:40.149Z,3.83
2018-07-16T01:14:07.991Z,4.90
2018-07-16T01:16:35.803Z,6.20
2018-07-16T01:19:03.648Z,6.30
2018-07-16T01:21:31.423Z,6.03
2018-07-16T01:23:59.228Z,5.40
2018-07-16T01:26:26.994Z,6.37
2018-07-16T01:28:54.827Z,6.27
2018-07-16T01:31:22.609Z,5.57
2018-07-16T01:33:50.373Z,6.43
2018-07-16T01:36:18.215Z,6.53
2018-07-16T01:38:46.017Z,6.60
2018-07-16T01:41:13.856Z,7.73
2018-07-16T01:43:41.675Z,5.20
2018-07-16T01:46:09.489Z,5.73
2018-07-16T01:48:37.288Z,6.13
2018-07-16T01:51:05.023Z,7.23
2018-07-16T01:53:32.819Z,7.93
2018-07-16T01:56:00.752Z,6.20
2018-07-16T01:58:28.526Z,6.13
2018-07-16T02:00:59.650Z,8.77
2018-07-16T02:03:29.483Z,6.37
2018-07-16T02:05:57.300Z,6.70
2018-07-16T02:08:25.743Z,6.00
2018-07-16T02:10:53.964Z,6.03
2018-07-16T02:13:22.018Z,7.67
2018-07-16T02:15:50.093Z,7.00
2018-07-16T02:18:17.971Z,5.73
2018-07-16T02:20:46.423Z,5.80
2018-07-16T02:23:14.270Z,7.63
2018-07-16T02:25:42.013Z,7.90
2018-07-16T02:28:10.812Z,6.77
2018-07-16T02:30:39.337Z,6.90
2018-07-16T02:33:07.711Z,7.17
2018-07-16T02:35:35.476Z,6.33
2018-07-16T02:38:03.355Z,6.93
2018-07-16T02:40:31.243Z,6.90
2018-07-16T02:42:59.032Z,5.67
2018-07-16T02:45:27.099Z,5.63
2018-07-16T02:47:55.124Z,5.27
2018-07-16T02:50:22.929Z,6.03
2018-07-16T02:52:50.740Z,7.03
2018-07-16T02:55:18.561Z,5.25
2018-07-16T02:57:46.396Z,8.40
2018-07-16T03:00:14.213Z,6.67
2018-07-16T03:02:42.039Z,8.10
2018-07-16T03:05:15.528Z,7.20
2018-07-16T03:07:44.208Z,7.03
2018-07-16T03:10:12.307Z,8.20
2018-07-16T03:12:40.251Z,8.20
2018-07-16T03:15:08.047Z,9.67
2018-07-16T03:17:35.813Z,8.83
2018-07-16T03:20:03.941Z,6.93
2018-07-16T03:22:31.735Z,7.60
2018-07-16T03:24:59.519Z,6.90
2018-07-16T03:27:27.292Z,6.83
2018-07-16T03:29:55.255Z,5.17
2018-07-16T03:32:23.300Z,6.10
2018-07-16T03:34:51.095Z,8.20
2018-07-16T03:37:18.879Z,6.90
2018-07-16T03:39:46.690Z,12.10
2018-07-16T03:42:14.519Z,7.63
2018-07-16T03:44:42.290Z,6.90
2018-07-16T03:47:10.079Z,9.37
2018-07-16T03:49:37.891Z,8.83
2018-07-16T03:52:05.788Z,5.60
2018-07-16T03:54:33.715Z,5.47
2018-07-16T03:57:01.553Z,5.50
2018-07-16T03:59:29.419Z,4.93
2018-07-16T04:01:57.201Z,6.07
2018-07-16T04:04:25.024Z,7.00
2018-07-16T04:06:52.811Z,8.47
2018-07-16T04:09:20.627Z,7.60
2018-07-16T04:11:48.459Z,7.40
2018-07-16T04:14:16.223Z,6.03
2018-07-16T04:16:44.033Z,5.97
2018-07-16T04:19:11.967Z,5.03
2018-07-16T04:21:39.760Z,7.90
2018-07-16T04:24:07.665Z,5.37
2018-07-16T04:26:35.472Z,7.63
2018-07-16T04:29:03.249Z,8.90
2018-07-16T04:31:31.068Z,6.60
2018-07-16T04:33:58.878Z,8.13
2018-07-16T04:36:26.675Z,6.80
2018-07-16T04:38:54.459Z,8.33
2018-07-16T04:41:22.248Z,6.83
2018-07-16T04:43:50.115Z,7.17
2018-07-16T04:46:17.964Z,5.27
2018-07-16T04:48:45.747Z,7.17
2018-07-16T04:51:13.704Z,9.57
2018-07-16T04:53:41.527Z,6.67
2018-07-16T04:56:09.337Z,5.43
2018-07-16T04:58:37.167Z,8.70
2018-07-16T05:01:05.275Z,11.17
2018-07-16T05:03:33.087Z,8.73
2018-07-16T05:06:00.843Z,9.00
2018-07-16T05:08:28.670Z,9.57
2018-07-16T05:10:56.573Z,9.10
2018-07-16T05:13:24.369Z,9.87
2018-07-16T05:15:52.200Z,10.33
2018-07-16T05:18:20.073Z,10.53
2018-07-16T05:20:47.867Z,10.83
2018-07-16T05:23:15.739Z,9.30
2018-07-16T05:25:43.515Z,11.57
2018-07-16T05:28:11.282Z,12.93
2018-07-16T05:30:39.111Z,11.13
2018-07-16T05:33:06.932Z,10.03
2018-07-16T05:35:34.790Z,11.40
2018-07-16T05:38:02.595Z,9.63
2018-07-16T05:40:30.383Z,10.07
2018-07-16T05:42:58.251Z,8.90
2018-07-16T05:45:26.092Z,7.97
2018-07-16T05:47:53.887Z,8.70
2018-07-16T05:50:21.819Z,8.50
2018-07-16T05:52:49.648Z,8.43
2018-07-16T05:55:17.535Z,9.77
2018-07-16T05:57:45.323Z,8.80
2018-07-16T06:00:13.136Z,9.83
2018-07-16T06:02:40.915Z,12.50
2018-07-16T06:05:08.748Z,8.80
2018-07-16T06:07:36.570Z,9.87
2018-07-16T06:10:04.415Z,13.37
2018-07-16T06:12:32.232Z,9.60
2018-07-16T06:15:00.007Z,8.20
2018-07-16T06:17:27.771Z,9.97
2018-07-16T06:19:55.620Z,9.87
2018-07-16T06:22:23.429Z,12.50
2018-07-16T06:24:51.268Z,10.10
2018-07-16T06:27:19.095Z,11.67
2018-07-16T06:29:46.927Z,11.27
2018-07-16T06:32:14.725Z,9.40
2018-07-16T06:34:42.527Z,10.53
2018-07-16T06:37:10.341Z,10.33
2018-07-16T06:39:38.236Z,12.20
2018-07-16T06:42:06.211Z,11.50
2018-07-16T06:44:33.971Z,12.20
2018-07-16T06:47:01.828Z,14.10
2018-07-16T06:49:29.635Z,13.70
2018-07-16T06:51:57.452Z,12.73
2018-07-16T06:54:25.323Z,12.27
2018-07-16T06:56:53.107Z,11.40
2018-07-16T06:59:20.927Z,12.70
2018-07-16T07:01:48.747Z,11.97
2018-07-16T07:04:16.539Z,11.47
2018-07-16T07:06:44.396Z,12.00
2018-07-16T07:09:12.223Z,11.57
2018-07-16T07:11:40.000Z,12.53
2018-07-16T07:14:07.835Z,13.93
2018-07-16T07:16:35.692Z,9.50
2018-07-16T07:19:03.556Z,12.63
2018-07-16T07:21:31.303Z,10.97
2018-07-16T07:23:59.163Z,13.23
2018-07-16T07:26:27.050Z,11.67
2018-07-16T07:28:54.790Z,11.57
2018-07-16T07:31:22.623Z,11.83
2018-07-16T07:33:50.428Z,12.73
2018-07-16T07:36:18.244Z,14.17
2018-07-16T07:38:46.033Z,15.07
2018-07-16T07:41:13.891Z,15.37
2018-07-16T07:43:41.720Z,15.43
2018-07-16T07:46:09.588Z,19.10
2018-07-16T07:48:37.389Z,16.17
2018-07-16T07:51:05.304Z,17.23
2018-07-16T07:53:33.115Z,18.00
2018-07-16T07:56:01.148Z,13.90
2018-07-16T07:58:28.979Z,16.00
2018-07-16T08:00:56.995Z,16.93
2018-07-16T08:03:24.853Z,17.27
2018-07-16T08:05:58.290Z,16.60
2018-07-16T08:08:26.055Z,15.40
2018-07-16T08:10:53.917Z,17.00
2018-07-16T08:13:21.744Z,15.47
2018-07-16T08:15:49.743Z,15.77
2018-07-16T08:18:17.556Z,16.33
2018-07-16T08:20:45.343Z,16.27
2018-07-16T08:23:13.159Z,16.23
2018-07-16T08:25:40.987Z,16.53
2018-07-16T08:28:10.821Z,15.27
2018-07-16T08:30:38.647Z,15.60
2018-07-16T08:33:08.912Z,15.60
2018-07-16T08:35:39.382Z,17.10
2018-07-16T08:38:08.412Z,16.23
2018-07-16T08:40:36.239Z,17.30
2018-07-16T08:43:04.124Z,14.87
2018-07-16T08:45:34.346Z,15.03
2018-07-16T08:48:03.774Z,16.00
2018-07-16T08:50:32.197Z,15.60
2018-07-16T08:53:00.126Z,15.00
2018-07-16T08:55:27.974Z,14.33
2018-07-16T08:57:55.785Z,13.53
2018-07-16T09:00:23.723Z,15.00
2018-07-16T09:02:51.510Z,12.90
2018-07-16T09:05:19.291Z,10.63
2018-07-16T09:07:47.091Z,12.30
2018-07-16T09:10:15.032Z,9.80
2018-07-16T09:12:42.824Z,11.23
2018-07-16T09:15:10.648Z,10.47
2018-07-16T09:17:38.494Z,10.23
2018-07-16T09:20:06.384Z,9.77
2018-07-16T09:22:34.196Z,9.83
2018-07-16T09:25:02.116Z,10.53
2018-07-16T09:27:29.997Z,11.07
2018-07-16T09:29:57.800Z,11.10
2018-07-16T09:32:25.624Z,10.33
2018-07-16T09:34:53.460Z,11.37
2018-07-16T09:37:21.291Z,11.03
2018-07-16T09:39:49.075Z,12.23
2018-07-16T09:42:16.955Z,12.00
2018-07-16T09:44:44.756Z,11.63
2018-07-16T09:47:12.597Z,10.77
2018-07-16T09:49:44.938Z,10.80
2018-07-16T09:52:13.052Z,13.03
2018-07-16T09:54:40.895Z,10.60
2018-07-16T09:57:08.680Z,10.27
2018-07-16T09:59:36.503Z,9.93
2018-07-16T10:02:10.119Z,10.10
2018-07-16T10:04:37.961Z,10.17
2018-07-16T10:07:05.909Z,9.57
2018-07-16T10:09:33.842Z,9.50
2018-07-16T10:12:02.177Z,7.43
2018-07-16T10:14:30.029Z,8.80
2018-07-16T10:16:57.887Z,7.83
2018-07-16T10:19:25.694Z,8.83
2018-07-16T10:21:53.535Z,9.27
2018-07-16T10:24:21.359Z,8.10
2018-07-16T10:26:49.164Z,7.60
2018-07-16T10:29:16.936Z,7.67
2018-07-16T10:31:44.730Z,8.80
2018-07-16T10:34:12.461Z,7.47
2018-07-16T10:36:40.271Z,7.83
2018-07-16T10:39:08.105Z,7.83
2018-07-16T10:41:36.207Z,7.80
2018-07-16T10:44:04.135Z,7.47
2018-07-16T10:46:31.966Z,7.00
2018-07-16T10:48:59.771Z,9.47
2018-07-16T10:51:29.710Z,6.93
2018-07-16T10:53:57.542Z,7.27
2018-07-16T10:56:37.059Z,6.13
2018-07-16T10:59:05.256Z,4.87
2018-07-16T11:01:33.128Z,5.30
2018-07-16T11:04:01.020Z,5.37
2018-07-16T11:06:28.911Z,4.87
2018-07-16T11:08:56.800Z,4.87
2018-07-16T11:11:24.561Z,4.50
2018-07-16T11:13:52.408Z,4.33
2018-07-16T11:16:20.185Z,4.87
2018-07-16T11:18:47.959Z,4.37
2018-07-16T11:21:15.825Z,4.10
2018-07-16T11:23:44.846Z,4.30
2018-07-16T11:26:12.864Z,4.28
2018-07-16T11:28:41.175Z,4.60
2018-07-16T11:31:09.086Z,3.98
2018-07-16T11:33:36.935Z,4.05
2018-07-16T11:36:05.203Z,4.10
2018-07-16T11:38:33.094Z,3.77
2018-07-16T11:41:00.938Z,3.72
2018-07-16T11:43:29.225Z,2.80
2018-07-16T11:45:57.284Z,2.30
2018-07-16T11:48:25.091Z,2.22
2018-07-16T11:50:52.910Z,2.95
2018-07-16T11:53:20.683Z,3.02
2018-07-16T11:55:48.438Z,2.98
2018-07-16T11:58:16.199Z,2.77
2018-07-16T12:00:44.019Z,2.60
2018-07-16T12:03:11.752Z,3.37
2018-07-16T12:05:39.553Z,2.83
2018-07-16T12:08:07.503Z,2.80
2018-07-16T12:10:35.628Z,3.05
2018-07-16T12:13:03.456Z,2.77
2018-07-16T12:15:37.652Z,3.90
2018-07-16T12:18:05.460Z,2.75
2018-07-16T12:20:35.206Z,3.05
2018-07-16T12:23:03.412Z,2.90
2018-07-16T12:25:31.644Z,4.28
2018-07-16T12:27:59.555Z,3.05
2018-07-16T12:30:27.347Z,3.02
2018-07-16T12:32:55.579Z,3.17
2018-07-16T12:35:23.279Z,3.20
2018-07-16T12:37:54.183Z,3.27
2018-07-16T12:40:26.261Z,2.70
2018-07-16T12:42:55.827Z,2.40
2018-07-16T12:45:26.928Z,2.35
2018-07-16T12:47:54.691Z,2.30
2018-07-16T12:50:22.527Z,2.40
2018-07-16T12:52:50.604Z,2.40
2018-07-16T12:55:18.440Z,2.20
2018-07-16T12:57:46.280Z,2.67
2018-07-16T13:00:14.059Z,2.37
2018-07-16T13:02:41.887Z,2.30
2018-07-16T13:05:10.594Z,2.60
2018-07-16T13:07:38.435Z,2.90
2018-07-16T13:10:06.343Z,3.12
2018-07-16T13:12:34.203Z,3.12
2018-07-16T13:15:02.020Z,2.62
2018-07-16T13:17:29.783Z,4.20
2018-07-16T13:19:57.587Z,2.70
2018-07-16T13:22:25.399Z,2.85
2018-07-16T13:24:53.201Z,3.20
2018-07-16T13:27:21.024Z,2.90
2018-07-16T13:29:48.932Z,2.67
2018-07-16T13:32:16.640Z,3.47
2018-07-16T13:34:44.463Z,2.90
2018-07-16T13:37:12.362Z,2.60
2018-07-16T13:39:40.119Z,3.85
2018-07-16T13:42:07.899Z,2.52
2018-07-16T13:44:35.714Z,3.77
2018-07-16T13:47:03.511Z,4.80
2018-07-16T13:49:31.364Z,2.98
2018-07-16T13:51:59.264Z,3.08
2018-07-16T13:54:27.085Z,3.12
2018-07-16T13:56:56.499Z,3.92
2018-07-16T13:59:25.412Z,3.00
2018-07-16T14:01:53.160Z,3.00
2018-07-16T14:04:22.556Z,3.30
2018-07-16T14:06:50.445Z,3.17
2018-07-16T14:09:18.603Z,3.60
2018-07-16T14:11:46.367Z,3.13
2018-07-16T14:14:14.134Z,2.80
2018-07-16T14:16:41.920Z,2.80
2018-07-16T14:19:09.753Z,3.37
2018-07-16T14:21:38.256Z,2.60
2018-07-16T14:24:06.163Z,2.90
2018-07-16T14:26:34.006Z,5.03
2018-07-16T14:29:01.859Z,3.40
2018-07-16T14:31:29.607Z,3.43
2018-07-16T14:33:58.144Z,3.37
2018-07-16T14:36:26.735Z,3.07
2018-07-16T14:38:54.548Z,3.57
2018-07-16T14:41:22.507Z,3.00
2018-07-16T14:43:52.447Z,3.00
2018-07-16T14:46:20.264Z,2.70
2018-07-16T14:48:48.032Z,5.43
2018-07-16T14:51:15.960Z,3.07
2018-07-16T14:53:43.727Z,3.10
2018-07-16T14:56:11.463Z,2.90
2018-07-16T14:58:39.701Z,3.27
2018-07-16T15:01:07.523Z,3.13
2018-07-16T15:03:37.310Z,2.70
2018-07-16T15:06:05.263Z,3.40
2018-07-16T15:08:33.580Z,2.87
2018-07-16T15:11:01.387Z,3.10
2018-07-16T15:13:29.221Z,5.63
2018-07-16T15:15:57.047Z,2.90
2018-07-16T15:18:24.868Z,3.03
2018-07-16T15:20:52.897Z,2.93
2018-07-16T15:23:23.631Z,2.97
2018-07-16T15:25:52.160Z,4.10
2018-07-16T15:28:20.928Z,2.90
2018-07-16T15:30:48.711Z,2.73
2018-07-16T15:33:18.217Z,3.20
2018-07-16T15:35:47.237Z,3.00
2018-07-16T15:38:15.347Z,3.17
2018-07-16T15:40:43.753Z,3.07
2018-07-16T15:43:11.508Z,3.07
2018-07-16T15:45:39.385Z,3.23
2018-07-16T15:48:07.168Z,2.90
2018-07-16T15:50:34.852Z,4.30
2018-07-16T15:53:05.498Z,3.27
2018-07-16T15:55:33.825Z,3.23
2018-07-16T15:58:06.070Z,2.97
2018-07-16T16:00:33.940Z,3.20
2018-07-16T16:03:04.805Z,3.10
2018-07-16T16:05:33.349Z,4.60
2018-07-16T16:08:01.252Z,3.13
2018-07-16T16:10:33.823Z,3.07
2018-07-16T16:13:01.683Z,2.47
2018-07-16T16:15:29.392Z,2.77
2018-07-16T16:17:57.251Z,3.17
2018-07-16T16:20:25.119Z,5.13
2018-07-16T16:22:52.920Z,2.80
2018-07-16T16:25:20.787Z,2.90
2018-07-16T16:27:48.619Z,3.20
2018-07-16T16:30:16.392Z,2.93
2018-07-16T16:32:44.307Z,2.93
2018-07-16T16:35:12.051Z,2.83
2018-07-16T16:37:39.935Z,3.13
2018-07-16T16:40:07.771Z,2.77
2018-07-16T16:42:35.612Z,3.30
2018-07-16T16:45:03.431Z,3.43
2018-07-16T16:47:31.185Z,2.97
2018-07-16T16:49:59.031Z,3.20
2018-07-16T16:52:26.815Z,2.73
2018-07-16T16:54:54.619Z,2.50
2018-07-16T16:57:22.375Z,2.57
2018-07-16T16:59:50.183Z,2.83
2018-07-16T17:02:17.979Z,3.00
2018-07-16T17:04:45.748Z,3.27
2018-07-16T17:07:13.697Z,3.37
2018-07-16T17:09:43.079Z,3.57
2018-07-16T17:12:11.859Z,3.33
2018-07-16T17:14:39.739Z,3.30
2018-07-16T17:17:07.511Z,3.33
2018-07-16T17:19:35.279Z,4.67
2018-07-16T17:22:03.267Z,5.90
2018-07-16T17:24:32.489Z,3.73
2018-07-16T17:27:00.376Z,3.23
2018-07-16T17:29:31.839Z,3.47
2018-07-16T17:31:59.660Z,3.70
2018-07-16T17:34:27.435Z,3.57
2018-07-16T17:36:55.200Z,3.30
2018-07-16T17:39:22.983Z,3.37
2018-07-16T17:41:50.731Z,3.20
2018-07-16T17:44:18.532Z,3.17
2018-07-16T17:46:46.368Z,4.37
2018-07-16T17:49:14.257Z,3.57
2018-07-16T17:51:42.246Z,3.60
2018-07-16T17:54:10.307Z,3.17
2018-07-16T17:56:38.405Z,4.30
2018-07-16T17:59:07.556Z,4.90
2018-07-16T18:01:35.587Z,3.63
2018-07-16T18:04:03.455Z,3.40
2018-07-16T18:06:31.359Z,4.67
2018-07-16T18:08:59.139Z,3.67
2018-07-16T18:11:27.064Z,4.83
2018-07-16T18:13:55.048Z,4.47
2018-07-16T18:16:22.824Z,4.60
2018-07-16T18:18:50.565Z,3.23
2018-07-16T18:21:18.336Z,6.27
2018-07-16T18:23:47.679Z,2.90
2018-07-16T18:26:15.622Z,6.27
2018-07-16T18:28:43.366Z,5.63
2018-07-16T18:31:11.207Z,5.17
2018-07-16T18:33:39.031Z,3.93
2018-07-16T18:36:06.928Z,5.20
2018-07-16T18:38:34.865Z,3.50
2018-07-16T18:41:02.904Z,3.23
2018-07-16T18:43:30.787Z,3.70
2018-07-16T18:46:04.267Z,4.17
2018-07-16T18:48:37.134Z,3.30
2018-07-16T18:51:06.432Z,4.87
2018-07-16T18:53:39.363Z,3.67
2018-07-16T18:56:07.196Z,4.00
2018-07-16T18:58:34.967Z,4.20
2018-07-16T19:01:02.986Z,4.50
2018-07-16T19:03:30.934Z,4.23
2018-07-16T19:05:58.735Z,4.27
2018-07-16T19:08:26.645Z,4.27
2018-07-16T19:10:54.383Z,4.33
2018-07-16T19:13:22.357Z,3.93
2018-07-16T19:15:50.075Z,4.30
2018-07-16T19:18:17.927Z,4.00
2018-07-16T19:20:49.717Z,4.30
2018-07-16T19:23:23.631Z,5.83
2018-07-16T19:25:59.728Z,5.40
2018-07-16T19:28:32.983Z,5.60
2018-07-16T19:31:09.261Z,6.30
2018-07-16T19:33:40.914Z,7.00
2018-07-16T19:36:09.241Z,6.43
2018-07-16T19:38:41.492Z,6.67
2018-07-16T19:41:09.430Z,5.03
2018-07-16T19:43:37.697Z,4.17
2018-07-16T19:46:05.483Z,4.43
2018-07-16T19:48:33.387Z,4.30
2018-07-16T19:51:01.538Z,4.63
2018-07-16T19:53:29.359Z,4.20
2018-07-16T19:55:58.756Z,5.07
2018-07-16T19:58:26.620Z,8.87
2018-07-16T20:00:54.446Z,8.13
2018-07-16T20:03:22.295Z,3.93
2018-07-16T20:05:50.109Z,4.73
2018-07-16T20:08:18.701Z,6.37
2018-07-16T20:10:46.599Z,4.83
2018-07-16T20:13:14.792Z,5.83
2018-07-16T20:15:42.798Z,13.77
2018-07-16T20:18:12.928Z,8.30
2018-07-16T20:20:54.305Z,5.73
2018-07-16T20:23:22.211Z,5.30
2018-07-16T20:25:53.980Z,5.87
2018-07-16T20:28:21.954Z,4.57
2018-07-16T20:30:50.264Z,4.63
2018-07-16T20:33:18.323Z,4.23
2018-07-16T20:35:46.552Z,4.53
2018-07-16T20:38:19.212Z,5.43
2018-07-16T20:40:48.414Z,4.50
2018-07-16T20:43:16.355Z,5.03
2018-07-16T20:45:51.564Z,5.57
2018-07-16T20:48:20.056Z,6.30
2018-07-16T20:50:47.900Z,4.63
2018-07-16T20:53:15.707Z,5.57
2018-07-16T20:55:43.514Z,4.83
2018-07-16T20:58:16.186Z,6.63
2018-07-16T21:00:43.967Z,4.97
2018-07-16T21:03:11.836Z,4.67
2018-07-16T21:05:39.583Z,5.80
2018-07-16T21:08:07.359Z,5.90
2018-07-16T21:10:38.011Z,6.43
2018-07-16T21:13:05.798Z,7.03
2018-07-16T21:15:36.333Z,6.17
2018-07-16T21:18:18.192Z,4.80
2018-07-16T21:20:48.185Z,5.00
2018-07-16T21:23:16.037Z,5.47
2018-07-16T21:25:43.879Z,5.00
2018-07-16T21:28:11.647Z,5.10
2018-07-16T21:30:41.699Z,4.23
2018-07-16T21:33:09.539Z,4.57
2018-07-16T21:35:40.262Z,5.23
2018-07-16T21:38:09.611Z,6.50
2018-07-16T21:40:37.518Z,4.43
2018-07-16T21:43:05.551Z,4.80
2018-07-16T21:45:33.500Z,6.83
2018-07-16T21:48:02.021Z,6.73
2018-07-16T21:50:30.835Z,5.67
2018-07-16T21:52:58.636Z,4.77
2018-07-16T21:55:29.653Z,5.40
2018-07-16T21:58:03.384Z,5.77
2018-07-16T22:00:32.370Z,5.03
2018-07-16T22:03:02.992Z,4.97
2018-07-16T22:05:30.799Z,4.40
2018-07-16T22:07:59.465Z,4.50
2018-07-16T22:10:27.223Z,4.20
2018-07-16T22:12:56.095Z,5.43
2018-07-16T22:15:27.872Z,4.80
2018-07-16T22:17:58.075Z,4.40
2018-07-16T22:20:32.901Z,6.33
2018-07-16T22:23:00.839Z,6.43
2018-07-16T22:25:28.881Z,5.93
2018-07-16T22:28:03.317Z,7.20
2018-07-16T22:30:31.882Z,6.20
2018-07-16T22:32:59.707Z,5.77
2018-07-16T22:35:30.360Z,7.87
2018-07-16T22:37:58.906Z,6.73
2018-07-16T22:40:31.127Z,11.67
2018-07-16T22:43:12.934Z,6.57
2018-07-16T22:45:46.392Z,6.70
2018-07-16T22:48:14.184Z,6.40
2018-07-16T22:50:42.012Z,6.27
2018-07-16T22:53:10.876Z,4.83
2018-07-16T22:55:38.755Z,6.90
2018-07-16T22:58:07.086Z,5.13
2018-07-16T23:00:34.971Z,9.57
2018-07-16T23:03:02.912Z,8.37
2018-07-16T23:05:31.366Z,7.23
2018-07-16T23:07:59.467Z,6.30
2018-07-16T23:10:27.389Z,6.97
2018-07-16T23:12:55.186Z,7.00
2018-07-16T23:15:23.083Z,5.57
2018-07-16T23:17:54.680Z,7.93
2018-07-16T23:20:22.552Z,7.27
2018-07-16T23:22:56.195Z,6.60
2018-07-16T23:25:24.148Z,12.07
2018-07-16T23:27:52.194Z,8.53
2018-07-16T23:30:20.021Z,6.13
2018-07-16T23:32:57.762Z,6.90
2018-07-16T23:35:25.678Z,12.83
2018-07-16T23:37:53.468Z,7.40
2018-07-16T23:40:31.934Z,6.53
2018-07-16T23:43:02.006Z,6.17
2018-07-16T23:45:30.125Z,6.40
2018-07-16T23:47:59.431Z,6.20
2018-07-16T23:50:27.421Z,6.13
2018-07-16T23:52:55.228Z,6.50
2018-07-16T23:55:23.080Z,8.93
2018-07-16T23:57:56.417Z,8.50
